createdAt,value
2023-04-04T00:00:24.713Z,15.84
2023-04-04T00:02:51.129Z,15.85
2023-04-04T00:05:17.621Z,15.83
2023-04-04T00:07:44.069Z,15.80
2023-04-04T00:10:10.417Z,15.81
2023-04-04T00:12:37.253Z,15.78
2023-04-04T00:15:03.546Z,15.78
2023-04-04T00:17:29.908Z,15.79
2023-04-04T00:19:56.324Z,15.76
2023-04-04T00:22:22.898Z,15.76
2023-04-04T00:24:49.305Z,15.73
2023-04-04T00:27:16.079Z,15.74
2023-04-04T00:29:42.666Z,15.72
2023-04-04T00:32:09.083Z,15.72
2023-04-04T00:34:35.381Z,15.69
2023-04-04T00:37:01.779Z,15.69
2023-04-04T00:39:28.152Z,15.68
2023-04-04T00:41:54.523Z,15.66
2023-04-04T00:44:20.886Z,15.66
2023-04-04T00:46:47.513Z,15.64
2023-04-04T00:49:14.078Z,15.63
2023-04-04T00:51:40.389Z,15.61
2023-04-04T00:54:06.760Z,15.60
2023-04-04T00:56:33.174Z,15.58
2023-04-04T00:58:59.613Z,15.61
2023-04-04T01:01:26.125Z,15.59
2023-04-04T01:03:52.700Z,15.58
2023-04-04T01:06:19.996Z,15.58
2023-04-04T01:08:49.127Z,15.58
2023-04-04T01:11:15.826Z,15.58
2023-04-04T01:13:42.228Z,15.56
2023-04-04T01:16:08.680Z,15.54
2023-04-04T01:18:35.109Z,15.52
2023-04-04T01:21:01.598Z,15.52
2023-04-04T01:23:27.977Z,15.52
2023-04-04T01:25:54.273Z,15.54
2023-04-04T01:28:20.573Z,15.50
2023-04-04T01:30:47.043Z,15.51
2023-04-04T01:33:13.384Z,15.49
2023-04-04T01:35:39.921Z,15.48
2023-04-04T01:38:06.327Z,15.48
2023-04-04T01:40:32.707Z,15.44
2023-04-04T01:42:59.044Z,15.45
2023-04-04T01:45:25.401Z,15.44
2023-04-04T01:47:51.801Z,15.43
2023-04-04T01:50:18.229Z,15.41
2023-04-04T01:52:44.565Z,15.42
2023-04-04T01:55:10.988Z,15.43
2023-04-04T01:57:37.358Z,15.44
2023-04-04T02:00:03.724Z,15.40
2023-04-04T02:02:30.168Z,15.39
2023-04-04T02:04:56.687Z,15.41
2023-04-04T02:07:23.017Z,15.39
2023-04-04T02:09:49.692Z,15.38
2023-04-04T02:12:16.628Z,15.38
2023-04-04T02:14:43.053Z,15.36
2023-04-04T02:17:09.471Z,15.38
2023-04-04T02:19:35.835Z,15.39
2023-04-04T02:22:02.398Z,15.34
2023-04-04T02:24:28.742Z,15.36
2023-04-04T02:26:55.135Z,15.36
2023-04-04T02:29:21.493Z,15.35
2023-04-04T02:31:47.849Z,15.35
2023-04-04T02:34:14.334Z,15.32
2023-04-04T02:36:40.710Z,15.32
2023-04-04T02:39:07.555Z,15.30
2023-04-04T02:41:33.920Z,15.30
2023-04-04T02:44:00.316Z,15.28
2023-04-04T02:46:26.799Z,15.28
2023-04-04T02:48:53.218Z,15.28
2023-04-04T02:51:19.660Z,15.29
2023-04-04T02:53:46.062Z,15.29
2023-04-04T02:56:12.438Z,15.27
2023-04-04T02:58:40.344Z,15.25
2023-04-04T03:01:08.213Z,15.23
2023-04-04T03:03:35.041Z,15.23
2023-04-04T03:06:01.619Z,15.19
2023-04-04T03:08:27.999Z,15.23
2023-04-04T03:10:54.465Z,15.23
2023-04-04T03:13:21.318Z,15.21
2023-04-04T03:15:47.687Z,15.20
2023-04-04T03:18:14.165Z,15.19
2023-04-04T03:20:41.385Z,15.17
2023-04-04T03:23:07.936Z,15.15
2023-04-04T03:25:34.295Z,15.18
2023-04-04T03:28:00.880Z,15.17
2023-04-04T03:30:27.339Z,15.13
2023-04-04T03:32:53.726Z,15.14
2023-04-04T03:35:20.324Z,15.14
2023-04-04T03:37:46.668Z,15.11
2023-04-04T03:40:12.966Z,15.14
2023-04-04T03:42:39.377Z,15.14
2023-04-04T03:45:05.938Z,15.10
2023-04-04T03:47:32.527Z,15.09
2023-04-04T03:49:59.029Z,15.13
2023-04-04T03:52:25.647Z,15.09
2023-04-04T03:54:52.156Z,15.07
2023-04-04T03:57:18.848Z,15.09
2023-04-04T03:59:45.351Z,15.07
2023-04-04T04:02:11.870Z,15.06
2023-04-04T04:04:38.258Z,15.08
2023-04-04T04:07:04.638Z,15.09
2023-04-04T04:09:31.086Z,15.06
2023-04-04T04:11:57.505Z,15.08
2023-04-04T04:14:24.192Z,15.06
2023-04-04T04:16:50.517Z,15.06
2023-04-04T04:19:17.134Z,15.02
2023-04-04T04:21:43.418Z,15.05
2023-04-04T04:24:09.779Z,15.07
2023-04-04T04:26:36.073Z,15.03
2023-04-04T04:29:02.895Z,15.03
2023-04-04T04:31:29.238Z,15.03
2023-04-04T04:33:55.690Z,15.00
2023-04-04T04:36:22.064Z,15.00
2023-04-04T04:38:48.434Z,15.03
2023-04-04T04:41:14.977Z,14.99
2023-04-04T04:43:41.357Z,15.03
2023-04-04T04:46:07.931Z,15.02
2023-04-04T04:48:34.443Z,14.99
2023-04-04T04:51:00.922Z,15.00
2023-04-04T04:53:27.250Z,14.99
2023-04-04T04:55:53.668Z,14.98
2023-04-04T04:58:20.028Z,14.98
2023-04-04T05:00:46.518Z,14.90
2023-04-04T05:03:12.994Z,14.92
2023-04-04T05:05:39.342Z,14.95
2023-04-04T05:08:05.827Z,14.92
2023-04-04T05:10:32.454Z,14.92
2023-04-04T05:12:58.893Z,14.90
2023-04-04T05:15:25.383Z,14.90
2023-04-04T05:17:51.866Z,14.91
2023-04-04T05:20:18.196Z,14.91
2023-04-04T05:22:44.866Z,14.90
2023-04-04T05:25:11.451Z,14.80
2023-04-04T05:27:37.786Z,14.86
2023-04-04T05:30:04.177Z,14.87
2023-04-04T05:32:30.609Z,14.87
2023-04-04T05:34:57.056Z,14.83
2023-04-04T05:37:23.370Z,14.83
2023-04-04T05:39:49.891Z,14.82
2023-04-04T05:42:16.246Z,14.83
2023-04-04T05:44:42.558Z,14.80
2023-04-04T05:47:08.863Z,14.79
2023-04-04T05:49:35.200Z,14.77
2023-04-04T05:52:01.562Z,14.76
2023-04-04T05:54:28.065Z,14.76
2023-04-04T05:56:54.493Z,14.76
2023-04-04T05:59:20.954Z,14.74
2023-04-04T06:01:47.347Z,14.73
2023-04-04T06:04:13.730Z,14.65
2023-04-04T06:06:40.860Z,14.65
2023-04-04T06:09:08.727Z,14.70
2023-04-04T06:11:35.523Z,14.73
2023-04-04T06:14:01.935Z,14.70
2023-04-04T06:16:28.597Z,14.72
2023-04-04T06:18:55.182Z,14.73
2023-04-04T06:21:21.587Z,14.71
2023-04-04T06:23:47.942Z,14.72
2023-04-04T06:26:14.238Z,14.72
2023-04-04T06:28:40.848Z,14.73
2023-04-04T06:31:07.181Z,14.72
2023-04-04T06:33:33.678Z,14.70
2023-04-04T06:36:00.032Z,14.73
2023-04-04T06:38:26.441Z,14.73
2023-04-04T06:40:53.156Z,14.71
2023-04-04T06:43:19.520Z,14.73
2023-04-04T06:45:46.073Z,14.69
2023-04-04T06:48:12.529Z,14.71
2023-04-04T06:50:39.384Z,14.66
2023-04-04T06:53:06.180Z,14.66
2023-04-04T06:55:32.579Z,14.66
2023-04-04T06:57:59.247Z,14.66
2023-04-04T07:00:25.989Z,14.62
2023-04-04T07:02:52.362Z,14.63
2023-04-04T07:05:18.890Z,14.62
2023-04-04T07:07:45.421Z,14.60
2023-04-04T07:10:12.135Z,14.57
2023-04-04T07:12:39.068Z,14.59
2023-04-04T07:15:05.438Z,14.62
2023-04-04T07:17:31.806Z,14.59
2023-04-04T07:19:58.245Z,14.59
2023-04-04T07:22:24.907Z,14.59
2023-04-04T07:24:51.262Z,14.57
2023-04-04T07:27:18.118Z,14.60
2023-04-04T07:29:44.947Z,14.58
2023-04-04T07:32:11.428Z,14.58
2023-04-04T07:34:38.796Z,14.59
2023-04-04T07:37:05.296Z,14.56
2023-04-04T07:39:32.228Z,14.57
2023-04-04T07:41:58.691Z,14.56
2023-04-04T07:44:25.562Z,14.58
2023-04-04T07:47:02.450Z,14.52
2023-04-04T07:49:33.113Z,14.55
2023-04-04T07:51:59.526Z,14.56
2023-04-04T07:54:25.842Z,14.54
2023-04-04T07:56:52.519Z,14.53
2023-04-04T07:59:19.021Z,14.53
2023-04-04T08:01:46.319Z,14.51
2023-04-04T08:04:12.749Z,14.51
2023-04-04T08:06:39.060Z,14.50
2023-04-04T08:09:05.402Z,14.51
2023-04-04T08:11:31.798Z,14.52
2023-04-04T08:13:58.185Z,14.51
2023-04-04T08:16:24.924Z,14.49
2023-04-04T08:18:51.302Z,14.51
2023-04-04T08:21:17.654Z,14.51
2023-04-04T08:23:44.172Z,14.49
2023-04-04T08:26:10.489Z,14.50
2023-04-04T08:28:36.878Z,14.49
2023-04-04T08:31:03.386Z,14.49
2023-04-04T08:33:44.326Z,14.48
2023-04-04T08:36:13.266Z,14.50
2023-04-04T08:38:40.173Z,14.52
2023-04-04T08:41:06.603Z,14.50
2023-04-04T08:43:32.959Z,14.47
2023-04-04T08:45:59.322Z,14.48
2023-04-04T08:48:25.725Z,14.49
2023-04-04T08:50:52.371Z,14.49
2023-04-04T08:53:18.743Z,14.48
2023-04-04T08:55:45.102Z,14.48
2023-04-04T08:58:11.534Z,14.49
2023-04-04T09:00:38.226Z,14.45
2023-04-04T09:03:05.043Z,14.45
2023-04-04T09:05:31.371Z,14.45
2023-04-04T09:07:57.733Z,14.44
2023-04-04T09:10:24.282Z,14.44
2023-04-04T09:12:51.782Z,14.44
2023-04-04T09:15:18.892Z,14.43
2023-04-04T09:17:45.258Z,14.42
2023-04-04T09:20:11.551Z,14.42
2023-04-04T09:22:38.267Z,14.42
2023-04-04T09:25:04.662Z,14.39
2023-04-04T09:27:31.024Z,14.38
2023-04-04T09:29:57.520Z,14.38
2023-04-04T09:32:24.134Z,14.37
2023-04-04T09:34:50.718Z,14.38
2023-04-04T09:37:17.068Z,14.35
2023-04-04T09:39:43.625Z,14.36
2023-04-04T09:42:10.205Z,14.36
2023-04-04T09:44:36.536Z,14.36
2023-04-04T09:47:02.860Z,14.36
2023-04-04T09:49:29.120Z,14.34
2023-04-04T09:51:55.569Z,14.34
2023-04-04T09:54:28.850Z,14.35
2023-04-04T09:56:56.437Z,14.32
2023-04-04T09:59:22.985Z,14.33
2023-04-04T10:01:49.447Z,14.34
2023-04-04T10:04:15.873Z,14.31
2023-04-04T10:06:42.254Z,14.30
2023-04-04T10:09:08.868Z,14.28
2023-04-04T10:11:35.231Z,14.30
2023-04-04T10:14:01.766Z,14.30
2023-04-04T10:16:28.172Z,14.28
2023-04-04T10:18:54.638Z,14.30
2023-04-04T10:21:21.056Z,14.29
2023-04-04T10:23:47.396Z,14.30
2023-04-04T10:26:13.787Z,14.28
2023-04-04T10:28:40.155Z,14.29
2023-04-04T10:31:07.376Z,14.26
2023-04-04T10:33:34.047Z,14.27
2023-04-04T10:36:00.426Z,14.26
2023-04-04T10:38:27.234Z,14.27
2023-04-04T10:40:53.565Z,14.26
2023-04-04T10:43:20.020Z,14.25
2023-04-04T10:45:46.820Z,14.25
2023-04-04T10:48:13.571Z,14.28
2023-04-04T10:50:39.929Z,14.25
2023-04-04T10:53:06.237Z,14.26
2023-04-04T10:55:32.567Z,14.23
2023-04-04T10:57:59.037Z,14.24
2023-04-04T11:00:25.504Z,14.25
2023-04-04T11:02:51.817Z,14.24
2023-04-04T11:05:18.163Z,14.23
2023-04-04T11:07:53.926Z,14.25
2023-04-04T11:10:30.727Z,14.23
2023-04-04T11:13:11.349Z,14.24
2023-04-04T11:15:39.071Z,14.24
2023-04-04T11:18:14.263Z,14.22
2023-04-04T11:20:52.182Z,14.21
2023-04-04T11:23:18.880Z,14.23
2023-04-04T11:25:45.257Z,14.21
2023-04-04T11:28:11.623Z,14.21
2023-04-04T11:30:37.943Z,14.22
2023-04-04T11:33:07.838Z,14.21
2023-04-04T11:35:34.721Z,14.19
2023-04-04T11:38:01.095Z,14.18
2023-04-04T11:40:27.554Z,14.18
2023-04-04T11:42:54.258Z,14.17
2023-04-04T11:45:20.842Z,14.18
2023-04-04T11:47:47.701Z,14.16
2023-04-04T11:50:14.098Z,14.18
2023-04-04T11:52:40.455Z,14.16
2023-04-04T11:55:07.066Z,14.18
2023-04-04T11:57:33.618Z,14.15
2023-04-04T11:59:59.949Z,14.15
2023-04-04T12:02:26.717Z,14.19
2023-04-04T12:04:53.148Z,14.15
2023-04-04T12:07:19.534Z,14.13
2023-04-04T12:09:46.050Z,14.14
2023-04-04T12:12:12.409Z,14.16
2023-04-04T12:14:38.742Z,14.16
2023-04-04T12:17:05.382Z,14.13
2023-04-04T12:19:31.835Z,14.15
2023-04-04T12:21:58.219Z,14.14
2023-04-04T12:24:24.594Z,14.13
2023-04-04T12:26:50.923Z,14.12
2023-04-04T12:29:17.257Z,14.13
2023-04-04T12:31:44.105Z,14.12
2023-04-04T12:34:10.463Z,14.10
2023-04-04T12:36:37.331Z,14.13
2023-04-04T12:39:03.860Z,14.12
2023-04-04T12:41:30.351Z,14.12
2023-04-04T12:43:57.142Z,14.14
2023-04-04T12:46:23.938Z,14.14
2023-04-04T12:48:50.399Z,14.11
2023-04-04T12:51:17.345Z,14.11
2023-04-04T12:53:43.768Z,14.11
2023-04-04T12:56:10.093Z,14.13
2023-04-04T12:58:37.625Z,14.12
2023-04-04T13:01:04.443Z,14.12
2023-04-04T13:03:31.035Z,14.10
2023-04-04T13:05:57.697Z,14.10
2023-04-04T13:08:24.256Z,14.13
2023-04-04T13:10:50.579Z,14.09
2023-04-04T13:13:16.925Z,14.09
2023-04-04T13:15:43.230Z,14.11
2023-04-04T13:18:10.181Z,14.12
2023-04-04T13:20:36.496Z,14.11
2023-04-04T13:23:02.839Z,14.15
2023-04-04T13:25:29.415Z,14.21
2023-04-04T13:27:55.773Z,14.25
2023-04-04T13:30:22.302Z,14.30
2023-04-04T13:32:48.838Z,14.34
2023-04-04T13:35:15.205Z,14.40
2023-04-04T13:37:41.564Z,14.44
2023-04-04T13:40:08.387Z,14.49
2023-04-04T13:42:35.164Z,14.58
2023-04-04T13:45:01.957Z,14.64
2023-04-04T13:47:28.711Z,14.70
2023-04-04T13:49:55.080Z,14.75
2023-04-04T13:52:21.420Z,14.83
2023-04-04T13:54:47.862Z,14.87
2023-04-04T13:57:14.682Z,14.91
2023-04-04T13:59:41.024Z,14.95
2023-04-04T14:02:07.354Z,15.00
2023-04-04T14:04:33.842Z,15.04
2023-04-04T14:07:00.308Z,15.09
2023-04-04T14:09:26.612Z,15.13
2023-04-04T14:11:53.120Z,15.17
2023-04-04T14:14:19.891Z,15.23
2023-04-04T14:16:46.676Z,15.29
2023-04-04T14:19:13.379Z,15.34
2023-04-04T14:21:40.023Z,15.39
2023-04-04T14:24:06.508Z,15.45
2023-04-04T14:26:34.204Z,15.49
2023-04-04T14:29:01.477Z,15.55
2023-04-04T14:31:27.839Z,15.59
2023-04-04T14:33:54.672Z,15.64
2023-04-04T14:36:21.156Z,15.67
2023-04-04T14:38:47.586Z,15.73
2023-04-04T14:41:14.018Z,15.78
2023-04-04T14:43:40.381Z,15.82
2023-04-04T14:46:06.838Z,15.87
2023-04-04T14:48:33.326Z,15.91
2023-04-04T14:50:59.800Z,15.94
2023-04-04T14:53:26.442Z,16.00
2023-04-04T14:55:53.013Z,16.02
2023-04-04T14:58:19.502Z,16.07
2023-04-04T15:00:46.303Z,16.11
2023-04-04T15:03:12.800Z,16.14
2023-04-04T15:05:39.776Z,16.19
2023-04-04T15:08:06.544Z,16.24
2023-04-04T15:10:33.271Z,16.27
2023-04-04T15:13:00.208Z,16.32
2023-04-04T15:15:26.855Z,16.37
2023-04-04T15:17:53.346Z,16.40
2023-04-04T15:20:19.940Z,16.44
2023-04-04T15:22:46.271Z,16.45
2023-04-04T15:25:12.594Z,16.49
2023-04-04T15:27:39.633Z,16.51
2023-04-04T15:30:06.307Z,16.54
2023-04-04T15:32:32.874Z,16.58
2023-04-04T15:34:59.526Z,16.62
2023-04-04T15:37:25.908Z,16.65
2023-04-04T15:39:53.900Z,16.66
2023-04-04T15:42:20.833Z,16.69
2023-04-04T15:44:47.454Z,16.70
2023-04-04T15:47:13.900Z,16.75
2023-04-04T15:49:40.210Z,16.77
2023-04-04T15:52:06.871Z,16.78
2023-04-04T15:54:33.319Z,16.80
2023-04-04T15:56:59.710Z,16.81
2023-04-04T15:59:26.328Z,16.82
2023-04-04T16:01:53.454Z,16.85
2023-04-04T16:04:19.827Z,16.88
2023-04-04T16:06:46.192Z,16.91
2023-04-04T16:09:12.837Z,16.93
2023-04-04T16:11:39.810Z,16.98
2023-04-04T16:14:06.353Z,17.02
2023-04-04T16:16:32.715Z,17.05
2023-04-04T16:18:59.454Z,17.09
2023-04-04T16:21:25.994Z,17.13
2023-04-04T16:23:52.288Z,17.19
2023-04-04T16:26:18.606Z,17.22
2023-04-04T16:28:46.931Z,17.29
2023-04-04T16:31:13.532Z,17.33
2023-04-04T16:33:39.982Z,17.37
2023-04-04T16:36:06.355Z,17.41
2023-04-04T16:38:32.698Z,17.44
2023-04-04T16:40:59.144Z,17.52
2023-04-04T16:43:25.484Z,17.53
2023-04-04T16:45:52.072Z,17.57
2023-04-04T16:48:18.643Z,17.59
2023-04-04T16:50:44.984Z,17.61
2023-04-04T16:53:11.331Z,17.70
2023-04-04T16:55:37.813Z,17.80
2023-04-04T16:58:04.141Z,18.33
2023-04-04T17:00:30.600Z,18.88
2023-04-04T17:02:56.981Z,19.33
2023-04-04T17:05:23.577Z,19.64
2023-04-04T17:07:50.408Z,19.96
2023-04-04T17:10:17.145Z,20.20
2023-04-04T17:12:43.573Z,20.36
2023-04-04T17:15:09.891Z,20.67
2023-04-04T17:17:36.249Z,19.94
2023-04-04T17:20:02.734Z,19.71
2023-04-04T17:22:29.618Z,19.54
2023-04-04T17:24:55.924Z,19.42
2023-04-04T17:27:22.287Z,19.32
2023-04-04T17:29:49.162Z,19.21
2023-04-04T17:32:15.930Z,19.14
2023-04-04T17:34:42.560Z,19.09
2023-04-04T17:37:09.102Z,19.04
2023-04-04T17:39:35.481Z,18.98
2023-04-04T17:42:02.008Z,18.92
2023-04-04T17:44:28.417Z,18.88
2023-04-04T17:46:54.939Z,18.83
2023-04-04T17:49:21.378Z,18.81
2023-04-04T17:51:47.710Z,18.78
2023-04-04T17:54:14.121Z,18.77
2023-04-04T17:56:40.675Z,18.74
2023-04-04T17:59:07.147Z,18.72
2023-04-04T18:01:33.944Z,18.70
2023-04-04T18:04:00.588Z,18.69
2023-04-04T18:06:27.606Z,18.67
2023-04-04T18:08:54.070Z,18.66
2023-04-04T18:11:20.884Z,18.67
2023-04-04T18:13:47.242Z,18.64
2023-04-04T18:16:13.663Z,18.64
2023-04-04T18:18:40.042Z,18.64
2023-04-04T18:21:07.036Z,18.63
2023-04-04T18:23:33.781Z,18.62
2023-04-04T18:26:00.306Z,18.62
2023-04-04T18:28:27.463Z,18.58
2023-04-04T18:30:54.056Z,18.59
2023-04-04T18:33:20.542Z,18.58
2023-04-04T18:35:46.982Z,18.58
2023-04-04T18:38:13.481Z,18.55
2023-04-04T18:40:40.004Z,18.56
2023-04-04T18:43:06.480Z,18.54
2023-04-04T18:45:39.307Z,18.53
2023-04-04T18:48:07.312Z,18.51
2023-04-04T18:50:33.734Z,18.51
2023-04-04T18:53:00.154Z,18.51
2023-04-04T18:55:26.824Z,18.49
2023-04-04T18:57:53.310Z,18.49
2023-04-04T19:00:19.682Z,18.49
2023-04-04T19:02:46.205Z,18.50
2023-04-04T19:05:12.581Z,18.48
2023-04-04T19:07:39.211Z,18.49
2023-04-04T19:10:05.616Z,18.49
2023-04-04T19:12:32.089Z,18.48
2023-04-04T19:14:58.407Z,18.47
2023-04-04T19:17:24.874Z,18.47
2023-04-04T19:19:51.274Z,18.45
2023-04-04T19:22:17.628Z,18.44
2023-04-04T19:24:44.470Z,18.42
2023-04-04T19:27:10.853Z,18.40
2023-04-04T19:29:37.187Z,18.41
2023-04-04T19:32:04.981Z,18.41
2023-04-04T19:34:32.457Z,18.41
2023-04-04T19:37:03.265Z,18.42
2023-04-04T19:39:30.034Z,18.41
2023-04-04T19:41:56.452Z,18.39
2023-04-04T19:44:23.274Z,18.40
2023-04-04T19:46:49.639Z,18.38
2023-04-04T19:49:16.138Z,18.40
2023-04-04T19:51:42.489Z,18.37
2023-04-04T19:54:09.122Z,18.37
2023-04-04T19:56:35.898Z,18.35
2023-04-04T19:59:02.486Z,18.35
2023-04-04T20:01:28.985Z,18.33
2023-04-04T20:03:55.644Z,18.33
2023-04-04T20:06:22.130Z,18.35
2023-04-04T20:08:49.121Z,18.31
2023-04-04T20:11:15.499Z,18.32
2023-04-04T20:13:41.788Z,18.33
2023-04-04T20:16:08.681Z,18.32
2023-04-04T20:18:35.148Z,18.32
2023-04-04T20:21:01.530Z,18.31
2023-04-04T20:23:28.161Z,18.30
2023-04-04T20:25:54.522Z,18.30
2023-04-04T20:28:20.829Z,18.29
2023-04-04T20:30:47.156Z,18.23
2023-04-04T20:33:13.723Z,18.22
2023-04-04T20:35:40.330Z,18.18
2023-04-04T20:38:06.657Z,18.16
2023-04-04T20:40:33.043Z,18.15
2023-04-04T20:42:59.494Z,18.13
2023-04-04T20:45:25.923Z,18.11
2023-04-04T20:47:52.384Z,18.10
2023-04-04T20:50:19.026Z,18.08
2023-04-04T20:52:45.553Z,18.07
2023-04-04T20:55:12.017Z,18.04
2023-04-04T20:57:38.359Z,18.02
2023-04-04T21:00:04.940Z,18.02
2023-04-04T21:02:31.664Z,18.02
2023-04-04T21:04:58.141Z,17.99
2023-04-04T21:07:25.068Z,17.87
2023-04-04T21:09:51.817Z,17.87
2023-04-04T21:12:18.120Z,17.87
2023-04-04T21:14:44.756Z,17.85
2023-04-04T21:17:11.163Z,17.99
2023-04-04T21:19:37.529Z,17.90
2023-04-04T21:22:04.349Z,17.91
2023-04-04T21:24:31.318Z,17.87
2023-04-04T21:26:57.744Z,17.88
2023-04-04T21:29:24.121Z,17.88
2023-04-04T21:31:50.526Z,17.83
2023-04-04T21:34:16.919Z,17.85
2023-04-04T21:36:43.355Z,17.85
2023-04-04T21:39:09.818Z,17.84
2023-04-04T21:41:36.167Z,17.83
2023-04-04T21:44:02.559Z,17.81
2023-04-04T21:46:29.043Z,17.80
2023-04-04T21:48:55.834Z,17.80
2023-04-04T21:51:23.213Z,17.82
2023-04-04T21:53:49.531Z,17.73
2023-04-04T21:56:16.949Z,17.66
2023-04-04T21:58:43.570Z,17.69
2023-04-04T22:01:10.301Z,17.71
2023-04-04T22:03:37.086Z,17.69
2023-04-04T22:06:03.422Z,17.64
2023-04-04T22:08:30.273Z,17.61
2023-04-04T22:10:56.765Z,17.55
2023-04-04T22:13:23.174Z,17.56
2023-04-04T22:15:49.531Z,17.51
2023-04-04T22:18:15.893Z,17.51
2023-04-04T22:20:42.585Z,17.48
2023-04-04T22:23:09.100Z,17.48
2023-04-04T22:25:35.454Z,17.46
2023-04-04T22:28:01.938Z,17.48
2023-04-04T22:30:28.326Z,17.45
2023-04-04T22:32:55.153Z,17.43
2023-04-04T22:35:21.640Z,17.40
2023-04-04T22:37:48.003Z,17.40
2023-04-04T22:40:14.544Z,17.36
2023-04-04T22:42:41.044Z,17.37
2023-04-04T22:45:07.795Z,17.34
2023-04-04T22:47:34.132Z,17.35
2023-04-04T22:50:00.528Z,17.29
2023-04-04T22:52:27.429Z,17.27
2023-04-04T22:54:53.881Z,17.27
2023-04-04T22:57:20.696Z,17.26
2023-04-04T22:59:47.018Z,17.23
2023-04-04T23:02:13.310Z,17.25
2023-04-04T23:04:40.085Z,17.23
2023-04-04T23:07:06.460Z,17.21
2023-04-04T23:09:33.482Z,17.17
2023-04-04T23:11:59.947Z,17.20
2023-04-04T23:14:26.314Z,17.18
2023-04-04T23:16:52.789Z,17.09
2023-04-04T23:19:19.609Z,17.09
2023-04-04T23:21:46.384Z,17.10
2023-04-04T23:24:12.784Z,17.05
2023-04-04T23:26:39.946Z,17.06
2023-04-04T23:29:06.217Z,17.04
2023-04-04T23:31:32.648Z,17.03
2023-04-04T23:33:58.984Z,17.00
2023-04-04T23:36:25.422Z,17.00
2023-04-04T23:38:51.817Z,16.95
2023-04-04T23:41:18.873Z,16.93
2023-04-04T23:43:45.163Z,16.90
2023-04-04T23:46:11.715Z,16.91
2023-04-04T23:48:38.167Z,16.88
2023-04-04T23:51:04.685Z,16.88
2023-04-04T23:53:31.189Z,16.84
2023-04-04T23:55:57.539Z,16.84
2023-04-04T23:58:23.971Z,16.81
